Flight Track Log - Related Links

Times and Time Zones

All times are in EDT time to prevent confusion due to time zone crossing. See the UAL789 flight status page for this flight to view local times or setup timezone preferences in your user account.

Time Position Orientation Groundspeed Altitude Reporting Facility
EDT Latitude Longitude Course Direction KTS MPH feet Rate Location/Type
Mon 10:12:19 AM 45.5972 -122.6028 293° West 150 173 700  Level Seattle Center
Mon 10:13:26 AM 45.6181 -122.6744 293° West 206 237 2,400 2,109 Climbing Seattle Center
Mon 10:14:27 AM 45.6511 -122.7631 298° West 272 313 5,200 3,000 Climbing Seattle Center
Mon 10:15:36 AM 45.6003 -122.8233 220° Southwest 274 315 8,900 2,677 Climbing Seattle Center
Mon 10:16:37 AM 45.5533 -122.7247 124° Southeast 312 359 11,000 2,331 Climbing Seattle Center
Mon 10:17:37 AM 45.5075 -122.6089 119° Southeast 331 381 13,600 2,083 Climbing Seattle Center
Mon 10:18:38 AM 45.4714 -122.4778 111° Southeast 352 405 15,200 1,967 Climbing Seattle Center
Mon 10:19:39 AM 45.4328 -122.3406 112° Southeast 369 425 17,600 2,066 Climbing Seattle Center
Mon 10:20:40 AM 45.3925 -122.1992 112° Southeast 382 440 19,400 1,884 Climbing Seattle Center
Mon 10:21:40 AM 45.3511 -122.0514 112° Southeast 399 459 21,400 1,686 Climbing Seattle Center
Mon 10:22:41 AM 45.3111 -121.9125 112° Southeast 403 464 22,800 1,426 Climbing Seattle Center
Mon 10:23:42 AM 45.2678 -121.7608 112° Southeast 413 475 24,300 1,475 Climbing Seattle Center
Mon 10:24:43 AM 45.2219 -121.6075 113° Southeast 421 484 25,800 1,377 Climbing Seattle Center
Mon 10:25:44 AM 45.1767 -121.4497 112° Southeast 429 494 27,100 1,388 Climbing Seattle Center
Mon 10:26:44 AM 45.1186 -121.2575 113° Southeast 440 506 28,600 1,339 Climbing Seattle Center
Mon 10:27:45 AM 45.0719 -121.0942 112° Southeast 447 514 29,800 1,082 Climbing Seattle Center
Mon 10:28:46 AM 45.0219 -120.9289 113° Southeast 458 527 30,800 1,033 Climbing Seattle Center
Mon 10:29:47 AM 44.9717 -120.7617 113° Southeast 463 533 31,900 1,180 Climbing Seattle Center
Mon 10:30:48 AM 44.9211 -120.5950 113° Southeast 464 534 33,200 1,240 Climbing Seattle Center
Mon 10:31:48 AM 44.8714 -120.4331 113° Southeast 455 524 34,400 1,041 Climbing Seattle Center
Mon 10:32:49 AM 44.8222 -120.2717 113° Southeast 454 522 35,300 934 Climbing Seattle Center
Mon 10:33:50 AM 44.7731 -120.1122 113° Southeast 453 521 36,300 836 Climbing Seattle Center
Mon 10:34:51 AM 44.7244 -119.9550 113° Southeast 449 517 37,000 344 Climbing Seattle Center
Mon 10:35:52 AM 44.6658 -119.7658 113° Southeast 447 514 37,000  Level Seattle Center
Mon 10:36:52 AM 44.6181 -119.6050 113° Southeast 451 519 37,000  Level Seattle Center
Mon 10:37:53 AM 44.5700 -119.4406 112° Southeast 456 525 37,000  Level Seattle Center
Mon 10:38:54 AM 44.5222 -119.2778 112° Southeast 456 525 37,000  Level Seattle Center
Mon 10:39:55 AM 44.4733 -119.1133 113° Southeast 459 528 37,000  Level Seattle Center
Mon 10:40:56 AM 44.4253 -118.9494 112° Southeast 457 526 37,000  Level Seattle Center
Mon 10:41:56 AM 44.3750 -118.7875 113° Southeast 456 525 37,000  Level Seattle Center
Mon 10:42:57 AM 44.3236 -118.6247 114° Southeast 459 528 37,000  Level Seattle Center
Mon 10:43:58 AM 44.2758 -118.4597 112° Southeast 460 529 37,000  Level Seattle Center
Mon 10:44:59 AM 44.2267 -118.2961 113° Southeast 458 527 37,000  Level Seattle Center
Mon 10:45:59 AM 44.1686 -118.1153 114° Southeast 463 533 37,000  Level Seattle Center
Mon 10:47:00 AM 44.1208 -117.9600 113° Southeast 459 528 37,000  Level Seattle Center
Mon 10:48:01 AM 44.0642 -117.7769 113° Southeast 462 532 37,000  Level Seattle Center
Mon 10:49:14 AM 44.0042 -117.5942 114° Southeast 459 528 37,000  Level Salt Lake Center
Mon 10:50:16 AM 43.9481 -117.4125 113° Southeast 461 531 37,000  Level Salt Lake Center
Mon 10:51:17 AM 43.8983 -117.2569 114° Southeast 462 532 37,000  Level Salt Lake Center
Mon 10:52:19 AM 43.8403 -117.0744 114° Southeast 464 534 37,000  Level Salt Lake Center
Mon 10:53:21 AM 43.7886 -116.9178 115° Southeast 467 537 37,000  Level Salt Lake Center
Mon 10:54:23 AM 43.7383 -116.7597 114° Southeast 471 542 37,000  Level Salt Lake Center
Mon 10:55:25 AM 43.6786 -116.5764 114° Southeast 472 543 37,000  Level Salt Lake Center
Mon 10:56:27 AM 43.6272 -116.4192 114° Southeast 471 542 37,000  Level Salt Lake Center
Mon 10:57:29 AM 43.5678 -116.2356 114° Southeast 471 542 37,000  Level Salt Lake Center
Mon 10:58:31 AM 43.5311 -116.0694 107° East 476 548 37,000  Level Salt Lake Center
Mon 10:59:33 AM 43.4961 -115.8697 104° East 481 554 37,000  Level Salt Lake Center
Mon 11:00:35 AM 43.4650 -115.6997 104° East 480 552 37,000  Level Salt Lake Center
Mon 11:01:37 AM 43.4297 -115.5006 104° East 481 554 37,000  Level Salt Lake Center
Mon 11:02:39 AM 43.3981 -115.3297 104° East 482 555 37,000  Level Salt Lake Center
Mon 11:03:41 AM 43.3617 -115.1308 104° East 483 556 37,000  Level Salt Lake Center
Mon 11:04:43 AM 43.3300 -114.9597 104° East 484 557 37,000  Level Salt Lake Center
Mon 11:05:45 AM 43.2919 -114.7594 105° East 487 560 37,000  Level Salt Lake Center
Mon 11:06:47 AM 43.2594 -114.5878 105° East 486 559 37,000  Level Salt Lake Center
Mon 11:07:49 AM 43.2217 -114.3869 104° East 486 559 37,000  Level Salt Lake Center
Mon 11:08:51 AM 43.1881 -114.2111 105° East 493 567 37,000  Level Salt Lake Center
Mon 11:09:53 AM 43.1522 -114.0314 105° East 492 566 37,000  Level Salt Lake Center
Mon 11:10:55 AM 43.1161 -113.8503 105° East 491 565 37,000  Level Salt Lake Center
Mon 11:11:57 AM 43.0761 -113.6528 105° East 485 558 37,000  Level Salt Lake Center
Mon 11:13:00 AM 43.0417 -113.4819 105° East 488 562 37,000  Level Salt Lake Center
Mon 11:14:01 AM 43.0019 -113.2836 105° East 487 560 37,000  Level Salt Lake Center
Mon 11:15:03 AM 42.9664 -113.1139 106° East 487 560 37,000  Level Salt Lake Center
Mon 11:16:05 AM 42.9253 -112.9147 106° East 489 563 37,000  Level Salt Lake Center
Mon 11:17:07 AM 42.8897 -112.7439 106° East 490 564 37,000  Level Salt Lake Center
Mon 11:18:09 AM 42.8364 -112.5481 110° East 494 568 37,000  Level Salt Lake Center
Mon 11:19:11 AM 42.7828 -112.3850 114° Southeast 493 567 37,000  Level Salt Lake Center
Mon 11:20:13 AM 42.7192 -112.1972 115° Southeast 491 565 37,000  Level Salt Lake Center
Mon 11:21:15 AM 42.6622 -112.0297 115° Southeast 491 565 37,000  Level Salt Lake Center
Mon 11:22:17 AM 42.6058 -111.8625 115° Southeast 488 562 37,000  Level Salt Lake Center
Mon 11:23:19 AM 42.5497 -111.6961 115° Southeast 486 559 37,000  Level Salt Lake Center
Mon 11:24:21 AM 42.4922 -111.5319 115° Southeast 483 556 37,000  Level Salt Lake Center
Mon 11:25:23 AM 42.4242 -111.3339 115° Southeast 483 556 37,000  Level Salt Lake Center
Mon 11:26:25 AM 42.3672 -111.1708 115° Southeast 480 552 37,000  Level Salt Lake Center
Mon 11:27:27 AM 42.3117 -111.0078 115° Southeast 478 550 37,000  Level Salt Lake Center
Mon 11:28:29 AM 42.2508 -110.8358 115° Southeast 473 544 37,000  Level Salt Lake Center
Mon 11:29:31 AM 42.1950 -110.6811 116° Southeast 479 551 37,000 48 Level Salt Lake Center
Mon 11:30:33 AM 42.1325 -110.5022 115° Southeast 475 547 37,100  Climbing Salt Lake Center
Mon 11:31:35 AM 42.0764 -110.3494 116° Southeast 476 548 37,000 -48 Descending Salt Lake Center
Mon 11:32:37 AM 42.0136 -110.1728 116° Southeast 471 542 37,000  Level Salt Lake Center
Mon 11:33:39 AM 41.9597 -110.0206 115° Southeast 471 542 37,000  Level Salt Lake Center
Mon 11:34:41 AM 41.9044 -109.8686 116° Southeast 473 544 37,000  Level Salt Lake Center
Mon 11:35:43 AM 41.8392 -109.6914 116° Southeast 474 545 37,000  Level Salt Lake Center
Mon 11:36:45 AM 41.7833 -109.5389 116° Southeast 476 548 37,000  Level Salt Lake Center
Mon 11:37:47 AM 41.7186 -109.3603 116° Southeast 476 548 37,000  Level Salt Lake Center
Mon 11:38:49 AM 41.6628 -109.2067 116° Southeast 476 548 37,000  Level Salt Lake Center
Mon 11:39:51 AM 41.5947 -109.0267 117° Southeast 478 550 37,000  Level Salt Lake Center
Mon 11:40:53 AM 41.5464 -108.8678 112° Southeast 475 547 37,000  Level Salt Lake Center
Mon 11:41:56 AM 41.4986 -108.7131 112° Southeast 470 541 37,000  Level Salt Lake Center
Mon 11:42:58 AM 41.4444 -108.5336 112° Southeast 467 537 37,000  Level Salt Lake Center
Mon 11:44:00 AM 41.4025 -108.3786 110° East 464 534 37,000  Level Salt Lake Center
Mon 11:45:02 AM 41.3531 -108.1978 110° East 465 535 37,000  Level Salt Lake Center
Mon 11:46:04 AM 41.3106 -108.0442 110° East 463 533 37,000  Level Salt Lake Center
Mon 11:47:06 AM 41.2611 -107.8647 110° East 464 534 37,000  Level Salt Lake Center
Mon 11:48:26 AM 41.2031 -107.6564 110° East 468 539 37,000  Level Denver Center
Mon 11:49:28 AM 41.1514 -107.4764 111° Southeast 468 539 37,000  Level Denver Center
Mon 11:50:30 AM 41.1078 -107.3200 110° East 471 542 37,000  Level Denver Center
Mon 11:51:32 AM 41.0639 -107.1669 111° Southeast 467 537 37,000 -194 Level Denver Center
Mon 11:52:34 AM 41.0128 -106.9853 110° East 470 541 36,600 -629 Descending Denver Center
Mon 11:53:36 AM 40.9681 -106.8331 111° Southeast 466 536 35,700 -919 Descending Denver Center
Mon 11:54:38 AM 40.9192 -106.6600 110° East 455 524 34,700 -968 Descending Denver Center
Mon 11:55:40 AM 40.8761 -106.5142 111° Southeast 448 516 33,700 -1,584 Descending Denver Center
Mon 11:56:43 AM 40.8244 -106.3406 111° Southeast 455 524 31,400 -2,064 Descending Denver Center
Mon 11:57:45 AM 40.7800 -106.1919 112° Southeast 456 525 29,400 -2,081 Descending Denver Center
Mon 11:58:47 AM 40.7311 -106.0189 110° East 444 511 27,100 -2,081 Descending Denver Center
Mon 11:59:49 AM 40.6858 -105.8717 112° Southeast 436 502 25,100 -1,935 Descending Denver Center
Mon 12:00:51 PM 40.6422 -105.7286 112° Southeast 423 487 23,100 -1,839 Descending Denver Center
Mon 12:01:53 PM 40.6014 -105.5889 111° Southeast 412 474 21,300 -1,790 Descending Denver Center
Mon 12:02:55 PM 40.5600 -105.4539 112° Southeast 401 461 19,400 -1,645 Descending Denver Center
Mon 12:03:57 PM 40.5197 -105.3222 112° Southeast 393 452 17,900 -1,258 Descending Denver Center
Mon 12:04:59 PM 40.4772 -105.1814 112° Southeast 349 402 16,800 -1,210 Descending Denver Center
Mon 12:06:01 PM 40.4444 -105.0653 110° East 335 386 15,400 -1,113 Descending Denver Center
Mon 12:07:03 PM 40.4103 -104.9556 112° Southeast 328 377 14,500 -1,355 Descending Denver Center
Mon 12:08:05 PM 40.3367 -104.8856 144° Southeast 312 359 12,600 -1,742 Descending Denver Center
Mon 12:09:07 PM 40.2578 -104.8350 154° Southeast 313 360 10,900 -1,548 Descending Denver Center
Mon 12:10:09 PM 40.1792 -104.7950 159° South 307 353 9,400 -774 Descending Denver Center
Mon 12:11:11 PM 40.1086 -104.7592 159° South 255 293 9,300 -484 Descending Denver Center
Mon 12:12:13 PM 40.0575 -104.7331 159° South 199 229 8,400 -871 Descending Denver Center

Login

Don't have an account? Register now (free) for customized features, flight alerts, and more!